createdAt,value
2019-04-21T00:01:57.829Z,92.60
2019-04-21T00:04:40.544Z,92.00
2019-04-21T00:07:31.604Z,91.60
2019-04-21T00:12:20.665Z,92.00
2019-04-21T00:14:43.629Z,92.20
2019-04-21T00:17:06.020Z,92.30
2019-04-21T00:19:44.668Z,92.50
2019-04-21T00:22:29.343Z,93.10
2019-04-21T00:24:56.834Z,92.70
2019-04-21T00:27:28.388Z,92.90
2019-04-21T00:30:08.748Z,92.50
2019-04-21T00:32:29.214Z,93.00
2019-04-21T00:34:53.425Z,92.40
2019-04-21T00:37:29.286Z,93.00
2019-04-21T00:40:14.453Z,92.80
2019-04-21T00:42:37.407Z,93.30
2019-04-21T00:45:03.515Z,92.80
2019-04-21T00:47:34.140Z,93.10
2019-04-21T00:50:05.066Z,93.50
2019-04-21T00:52:51.262Z,94.20
2019-04-21T00:57:54.230Z,94.10
2019-04-21T01:00:17.725Z,94.40
2019-04-21T01:02:49.842Z,94.80
2019-04-21T01:05:37.052Z,94.90
2019-04-21T01:07:48.263Z,95.10
2019-04-21T01:10:09.573Z,95.60
2019-04-21T01:16:10.176Z,96.00
2019-04-21T01:18:41.029Z,95.70
2019-04-21T01:20:45.825Z,95.80
2019-04-21T01:23:14.708Z,95.10
2019-04-21T01:25:57.165Z,94.20
2019-04-21T01:28:29.326Z,94.90
2019-04-21T01:31:07.459Z,95.70
2019-04-21T01:33:41.187Z,94.80
2019-04-21T01:36:05.449Z,94.60
2019-04-21T01:38:40.324Z,94.50
2019-04-21T01:41:08.378Z,94.30
2019-04-21T01:43:57.476Z,94.50
2019-04-21T01:46:25.763Z,93.50
2019-04-21T01:48:52.531Z,93.90
2019-04-21T01:51:28.146Z,94.40
2019-04-21T01:54:09.353Z,94.10
2019-04-21T01:56:51.282Z,94.10
2019-04-21T01:59:08.943Z,93.80
2019-04-21T02:01:52.458Z,93.70
2019-04-21T02:04:29.441Z,93.60
2019-04-21T02:06:59.407Z,93.60
2019-04-21T02:09:23.288Z,93.40
2019-04-21T02:12:00.083Z,93.30
2019-04-21T02:14:31.150Z,93.00
2019-04-21T02:16:59.323Z,93.00
2019-04-21T02:19:23.411Z,93.30
2019-04-21T02:21:51.909Z,93.40
2019-04-21T02:24:34.924Z,93.80
2019-04-21T02:26:59.222Z,94.00
2019-04-21T02:29:34.770Z,94.40
2019-04-21T02:32:08.954Z,94.50
2019-04-21T02:37:28.112Z,93.80
2019-04-21T02:39:48.938Z,93.40
2019-04-21T02:44:43.004Z,92.90
2019-04-21T02:47:03.704Z,92.80
2019-04-21T02:54:53.911Z,92.20
2019-04-21T02:57:18.628Z,92.30
2019-04-21T03:00:00.445Z,92.20
2019-04-21T03:05:01.866Z,92.00
2019-04-21T03:10:02.257Z,92.00
2019-04-21T03:12:32.075Z,92.00
2019-04-21T03:22:39.379Z,91.90
2019-04-21T03:27:48.774Z,91.90
2019-04-21T03:30:14.259Z,92.20
2019-04-21T03:33:15.452Z,92.00
2019-04-21T03:40:07.933Z,92.10
2019-04-21T03:42:42.664Z,91.80
2019-04-21T03:45:18.705Z,92.30
2019-04-21T03:47:34.563Z,92.60
2019-04-21T04:00:45.078Z,93.10
2019-04-21T04:03:23.705Z,92.60
2019-04-21T04:06:01.986Z,93.00
2019-04-21T04:08:31.927Z,92.90
2019-04-21T04:11:03.055Z,92.90
2019-04-21T04:13:34.115Z,92.80
2019-04-21T04:15:56.222Z,92.70
2019-04-21T04:18:39.259Z,92.70
2019-04-21T04:20:51.666Z,92.70
2019-04-21T04:23:31.548Z,92.70
2019-04-21T04:25:59.174Z,92.60
2019-04-21T04:28:33.678Z,92.80
2019-04-21T04:31:30.140Z,92.60
2019-04-21T04:33:37.319Z,92.70
2019-04-21T04:38:41.500Z,93.00
2019-04-21T04:41:06.343Z,92.90
2019-04-21T04:46:00.491Z,93.00
2019-04-21T04:53:40.478Z,92.80
2019-04-21T04:56:07.707Z,93.20
2019-04-21T05:01:16.929Z,92.90
2019-04-21T05:03:44.420Z,93.10
2019-04-21T05:14:03.061Z,93.60
2019-04-21T05:16:41.105Z,93.90
2019-04-21T05:19:08.444Z,93.90
2019-04-21T05:23:47.008Z,94.10
2019-04-21T05:26:09.809Z,93.90
2019-04-21T05:28:40.916Z,93.40
2019-04-21T05:31:25.644Z,94.70
2019-04-21T05:34:03.093Z,94.30
2019-04-21T05:36:34.332Z,94.10
2019-04-21T05:39:10.820Z,93.80
2019-04-21T05:41:31.397Z,93.80
2019-04-21T05:44:13.238Z,94.20
2019-04-21T05:46:53.486Z,94.00
2019-04-21T05:49:20.573Z,94.00
2019-04-21T05:51:59.763Z,93.80
2019-04-21T05:54:53.071Z,93.60
2019-04-21T05:57:08.643Z,93.70
2019-04-21T06:02:17.427Z,92.40
2019-04-21T06:05:01.941Z,92.50
2019-04-21T06:07:13.289Z,91.80
2019-04-21T06:09:49.925Z,91.30
2019-04-21T06:12:08.927Z,91.60
2019-04-21T06:14:43.951Z,91.20
2019-04-21T06:17:19.157Z,90.90
2019-04-21T06:22:11.986Z,89.80
2019-04-21T06:24:54.260Z,90.00
2019-04-21T06:27:18.917Z,90.10
2019-04-21T06:29:44.839Z,88.60
2019-04-21T06:32:30.404Z,89.10
2019-04-21T06:34:59.113Z,88.10
2019-04-21T06:40:03.206Z,82.50
2019-04-21T06:42:13.606Z,82.80
2019-04-21T06:44:53.763Z,81.70
2019-04-21T06:47:26.036Z,81.80
2019-04-21T06:49:45.163Z,78.80
2019-04-21T06:52:42.384Z,78.30
2019-04-21T06:57:23.182Z,79.00
2019-04-21T06:59:45.215Z,79.60
2019-04-21T07:02:36.480Z,77.60
2019-04-21T07:07:17.183Z,77.30
2019-04-21T07:09:57.261Z,73.70
2019-04-21T07:12:18.749Z,74.40
2019-04-21T07:14:55.985Z,72.30
2019-04-21T07:17:24.623Z,70.50
2019-04-21T07:19:55.854Z,70.90
2019-04-21T07:22:24.738Z,69.80
2019-04-21T07:24:58.676Z,70.60
2019-04-21T07:27:33.946Z,70.00
2019-04-21T07:29:58.192Z,70.80
2019-04-21T07:32:26.787Z,70.30
2019-04-21T07:34:57.662Z,68.30
2019-04-21T07:37:23.996Z,69.30
2019-04-21T07:39:54.528Z,66.90
2019-04-21T07:42:17.484Z,66.40
2019-04-21T07:44:49.534Z,63.30
2019-04-21T07:47:33.905Z,60.30
2019-04-21T07:50:07.462Z,60.70
2019-04-21T07:52:47.028Z,59.40
2019-04-21T07:55:19.979Z,58.80
2019-04-21T07:57:37.683Z,58.60
2019-04-21T08:02:40.427Z,55.40
2019-04-21T08:05:23.851Z,55.90
2019-04-21T08:10:13.883Z,55.30
2019-04-21T08:12:37.943Z,54.10
2019-04-21T08:17:41.413Z,54.00
2019-04-21T08:20:12.332Z,53.50
2019-04-21T08:22:46.796Z,52.00
2019-04-21T08:25:15.126Z,50.90
2019-04-21T08:27:50.638Z,47.70
2019-04-21T08:30:11.795Z,46.10
2019-04-21T08:32:51.484Z,44.70
2019-04-21T08:37:43.308Z,43.70
2019-04-21T08:40:19.333Z,42.20
2019-04-21T08:42:46.692Z,42.60
2019-04-21T08:45:21.783Z,40.80
2019-04-21T08:47:49.680Z,42.10
2019-04-21T08:50:15.163Z,42.40
2019-04-21T08:52:49.206Z,39.40
2019-04-21T08:55:25.185Z,38.90
2019-04-21T08:58:18.541Z,37.00
2019-04-21T09:00:56.237Z,35.90
2019-04-21T09:03:45.732Z,33.60
2019-04-21T09:06:13.729Z,36.10
2019-04-21T09:08:42.280Z,33.50
2019-04-21T09:11:11.501Z,33.80
2019-04-21T09:13:43.052Z,33.30
2019-04-21T09:16:09.746Z,33.80
2019-04-21T09:18:39.535Z,33.60
2019-04-21T09:21:14.820Z,33.80
2019-04-21T09:23:43.731Z,31.50
2019-04-21T09:26:13.831Z,32.70
2019-04-21T09:28:39.476Z,33.10
2019-04-21T09:30:58.456Z,32.50
2019-04-21T09:33:34.513Z,30.30
2019-04-21T09:36:01.017Z,29.00
2019-04-21T09:38:32.869Z,30.10
2019-04-21T09:40:56.508Z,31.70
2019-04-21T09:43:34.111Z,30.00
2019-04-21T09:45:57.167Z,30.20
2019-04-21T09:48:26.666Z,29.20
2019-04-21T09:50:57.379Z,29.70
2019-04-21T09:53:33.214Z,29.20
2019-04-21T09:56:01.057Z,29.10
2019-04-21T09:58:34.798Z,27.70
2019-04-21T10:01:11.039Z,27.70
2019-04-21T10:03:39.691Z,28.70
2019-04-21T10:05:58.721Z,28.80
2019-04-21T10:08:27.574Z,27.70
2019-04-21T10:10:56.985Z,26.90
2019-04-21T10:13:25.879Z,27.90
2019-04-21T10:15:58.957Z,26.60
2019-04-21T10:18:27.677Z,27.40
2019-04-21T10:20:57.012Z,26.40
2019-04-21T10:23:25.880Z,26.80
2019-04-21T10:25:54.708Z,27.30
2019-04-21T10:28:23.392Z,26.80
2019-04-21T10:30:52.911Z,27.40
2019-04-21T10:33:22.010Z,27.80
2019-04-21T10:35:50.908Z,26.10
2019-04-21T10:38:27.975Z,27.00
2019-04-21T10:40:49.857Z,24.90
2019-04-21T10:43:22.078Z,24.90
2019-04-21T10:45:48.907Z,25.90
2019-04-21T10:48:18.823Z,24.90
2019-04-21T10:50:47.655Z,26.20
2019-04-21T10:53:18.838Z,24.80
2019-04-21T10:55:58.953Z,26.30
2019-04-21T10:58:22.539Z,26.00
2019-04-21T11:00:52.808Z,25.20
2019-04-21T11:03:26.852Z,25.20
2019-04-21T11:06:03.323Z,25.10
2019-04-21T11:08:38.041Z,23.50
2019-04-21T11:11:03.772Z,23.70
2019-04-21T11:13:32.708Z,24.70
2019-04-21T11:16:01.749Z,24.70
2019-04-21T11:18:31.690Z,25.30
2019-04-21T11:21:00.848Z,26.00
2019-04-21T11:23:29.508Z,23.90
2019-04-21T11:25:58.301Z,25.20
2019-04-21T11:28:27.205Z,22.60
2019-04-21T11:30:57.194Z,23.20
2019-04-21T11:33:27.149Z,24.30
2019-04-21T11:35:55.715Z,25.50
2019-04-21T11:38:55.812Z,23.90
2019-04-21T11:41:09.642Z,23.90
2019-04-21T11:43:39.159Z,23.10
2019-04-21T11:46:08.595Z,23.90
2019-04-21T11:48:37.139Z,24.60
2019-04-21T11:51:06.742Z,22.80
2019-04-21T11:53:36.899Z,23.40
2019-04-21T11:56:06.946Z,23.50
2019-04-21T11:58:36.068Z,24.10
2019-04-21T12:01:05.676Z,23.10
2019-04-21T12:03:35.764Z,22.60
2019-04-21T12:06:05.765Z,23.20
2019-04-21T12:08:40.404Z,23.40
2019-04-21T12:11:05.367Z,22.20
2019-04-21T12:13:34.223Z,22.00
2019-04-21T12:16:03.208Z,22.40
2019-04-21T12:18:32.466Z,21.70
2019-04-21T12:21:03.133Z,21.30
2019-04-21T12:23:32.425Z,21.80
2019-04-21T12:26:01.385Z,19.70
2019-04-21T12:28:30.325Z,21.20
2019-04-21T12:31:00.062Z,22.30
2019-04-21T12:33:38.051Z,20.90
2019-04-21T12:36:06.860Z,20.40
2019-04-21T12:38:46.579Z,20.80
2019-04-21T12:41:06.603Z,20.80
2019-04-21T12:43:36.951Z,19.80
2019-04-21T12:46:05.875Z,20.70
2019-04-21T12:48:34.289Z,21.20
2019-04-21T12:51:03.863Z,21.00
2019-04-21T12:53:33.963Z,19.70
2019-04-21T12:56:02.596Z,19.40
2019-04-21T12:58:31.457Z,19.80
2019-04-21T13:01:00.913Z,20.80
2019-04-21T13:03:30.369Z,19.80
2019-04-21T13:05:59.265Z,19.40
2019-04-21T13:08:27.745Z,18.80
2019-04-21T13:10:58.109Z,19.90
2019-04-21T13:13:28.161Z,19.70
2019-04-21T13:15:57.699Z,19.30
2019-04-21T13:18:27.019Z,19.50
2019-04-21T13:20:56.114Z,19.40
2019-04-21T13:23:24.961Z,20.30
2019-04-21T13:25:54.124Z,21.00
2019-04-21T13:28:23.097Z,19.60
2019-04-21T13:30:51.795Z,19.50
2019-04-21T13:33:20.986Z,19.60
2019-04-21T13:35:50.932Z,19.40
2019-04-21T13:38:29.352Z,19.30
2019-04-21T13:41:11.877Z,18.40
2019-04-21T13:43:25.203Z,19.90
2019-04-21T13:45:54.083Z,19.20
2019-04-21T13:48:22.582Z,19.40
2019-04-21T13:50:51.339Z,20.30
2019-04-21T13:53:20.897Z,19.90
2019-04-21T13:55:50.860Z,19.40
2019-04-21T13:58:20.092Z,19.60
2019-04-21T14:00:50.556Z,19.40
2019-04-21T14:03:21.753Z,19.50
2019-04-21T14:05:50.516Z,18.20
2019-04-21T14:08:19.040Z,18.40
2019-04-21T14:10:49.111Z,19.00
2019-04-21T14:13:18.459Z,18.90
2019-04-21T14:15:48.838Z,18.00
2019-04-21T14:18:18.575Z,18.30
2019-04-21T14:20:47.403Z,18.80
2019-04-21T14:23:25.556Z,18.30
2019-04-21T14:25:46.292Z,18.30
2019-04-21T14:28:15.635Z,18.80
2019-04-21T14:30:44.307Z,18.70
2019-04-21T14:33:14.114Z,19.30
2019-04-21T14:35:43.104Z,18.80
2019-04-21T14:38:11.646Z,18.00
2019-04-21T14:40:41.735Z,18.60
2019-04-21T14:43:12.009Z,18.60
2019-04-21T14:45:45.441Z,18.20
2019-04-21T14:48:32.837Z,19.10
2019-04-21T14:51:06.661Z,20.10
2019-04-21T14:53:56.327Z,19.70
2019-04-21T14:56:27.007Z,19.10
2019-04-21T14:58:57.656Z,20.00
2019-04-21T15:01:26.227Z,19.20
2019-04-21T15:03:55.516Z,19.10
2019-04-21T15:06:25.427Z,18.60
2019-04-21T15:08:55.499Z,18.90
2019-04-21T15:11:24.496Z,18.70
2019-04-21T15:13:53.654Z,18.60
2019-04-21T15:16:22.905Z,18.60
2019-04-21T15:18:52.694Z,18.20
2019-04-21T15:21:21.733Z,19.10
2019-04-21T15:23:50.769Z,19.00
2019-04-21T15:26:20.099Z,18.70
2019-04-21T15:28:48.945Z,18.80
2019-04-21T15:31:23.876Z,18.90
2019-04-21T15:33:47.849Z,18.10
2019-04-21T15:36:16.734Z,18.80
2019-04-21T15:38:45.793Z,18.90
2019-04-21T15:41:16.377Z,18.70
2019-04-21T15:43:44.912Z,18.50
2019-04-21T15:46:13.492Z,18.50
2019-04-21T15:48:42.528Z,18.10
2019-04-21T15:51:11.215Z,18.90
2019-04-21T15:53:41.787Z,19.20
2019-04-21T15:56:12.995Z,19.30
2019-04-21T15:58:46.532Z,19.80
2019-04-21T16:01:25.671Z,19.10
2019-04-21T16:03:56.892Z,20.10
2019-04-21T16:06:25.683Z,20.00
2019-04-21T16:08:57.105Z,19.80
2019-04-21T16:11:24.371Z,20.00
2019-04-21T16:13:52.783Z,20.20
2019-04-21T16:16:23.599Z,19.40
2019-04-21T16:18:52.164Z,19.40
2019-04-21T16:21:22.012Z,19.80
2019-04-21T16:23:51.141Z,20.30
2019-04-21T16:26:20.368Z,19.40
2019-04-21T16:28:49.257Z,19.70
2019-04-21T16:31:18.469Z,19.90
2019-04-21T16:33:47.174Z,21.30
2019-04-21T16:36:17.106Z,21.80
2019-04-21T16:38:47.135Z,21.30
2019-04-21T16:41:16.139Z,22.20
2019-04-21T16:43:45.048Z,22.80
2019-04-21T16:46:13.837Z,23.40
2019-04-21T16:48:44.050Z,23.70
2019-04-21T16:51:13.213Z,24.60
2019-04-21T16:53:43.984Z,25.40
2019-04-21T16:56:29.447Z,26.20
2019-04-21T16:59:14.889Z,26.80
2019-04-21T17:01:44.667Z,27.10
2019-04-21T17:04:13.203Z,27.90
2019-04-21T17:06:42.889Z,28.10
2019-04-21T17:09:12.670Z,27.90
2019-04-21T17:11:43.627Z,27.60
2019-04-21T17:14:27.244Z,28.20
2019-04-21T17:17:03.710Z,27.90
2019-04-21T17:19:21.314Z,27.80
2019-04-21T17:21:43.692Z,28.10
2019-04-21T17:24:12.710Z,28.00
2019-04-21T17:26:44.119Z,28.80
2019-04-21T17:29:12.365Z,29.70
2019-04-21T17:31:41.380Z,29.90
2019-04-21T17:34:16.171Z,32.10
2019-04-21T17:36:41.175Z,32.80
2019-04-21T17:39:11.102Z,32.90
2019-04-21T17:41:54.150Z,34.30
2019-04-21T17:44:10.766Z,36.00
2019-04-21T17:46:46.555Z,36.90
2019-04-21T17:49:10.833Z,38.50
2019-04-21T17:52:01.126Z,40.10
2019-04-21T17:54:35.817Z,40.50
2019-04-21T17:57:21.680Z,41.40
2019-04-21T17:59:56.872Z,41.60
2019-04-21T18:02:24.782Z,42.00
2019-04-21T18:04:57.707Z,42.80
2019-04-21T18:07:26.146Z,42.90
2019-04-21T18:10:00.865Z,43.90
2019-04-21T18:12:41.483Z,45.70
2019-04-21T18:15:16.766Z,45.50
2019-04-21T18:17:28.802Z,44.90
2019-04-21T18:19:57.463Z,46.20
2019-04-21T18:22:41.502Z,46.10
2019-04-21T18:25:25.222Z,47.80
2019-04-21T18:27:42.696Z,47.60
2019-04-21T18:30:38.157Z,47.60
2019-04-21T18:33:17.403Z,47.70
2019-04-21T18:35:57.904Z,47.50
2019-04-21T18:39:13.993Z,49.00
2019-04-21T18:41:23.654Z,49.40
2019-04-21T18:44:30.329Z,52.50
2019-04-21T18:47:01.292Z,53.30
2019-04-21T18:49:13.130Z,53.80
2019-04-21T18:51:57.298Z,53.20
2019-04-21T18:54:37.138Z,52.60
2019-04-21T18:57:03.245Z,52.90
2019-04-21T18:59:31.391Z,53.30
2019-04-21T19:01:59.954Z,53.00
2019-04-21T19:04:28.722Z,53.10
2019-04-21T19:07:06.606Z,53.60
2019-04-21T19:10:07.242Z,53.00
2019-04-21T19:12:17.794Z,53.70
2019-04-21T19:14:40.070Z,56.30
2019-04-21T19:22:13.572Z,55.00
2019-04-21T19:24:48.597Z,55.00
2019-04-21T19:27:21.203Z,54.10
2019-04-21T19:29:54.086Z,55.50
2019-04-21T19:32:19.787Z,55.70
2019-04-21T19:34:32.380Z,56.20
2019-04-21T19:37:06.083Z,56.90
2019-04-21T19:39:42.796Z,57.30
2019-04-21T19:42:08.633Z,59.30
2019-04-21T19:44:47.090Z,57.70
2019-04-21T19:47:25.894Z,58.30
2019-04-21T19:49:49.512Z,58.10
2019-04-21T19:52:06.591Z,58.70
2019-04-21T19:54:36.259Z,59.40
2019-04-21T19:57:00.833Z,58.40
2019-04-21T19:59:36.651Z,57.30
2019-04-21T20:02:00.281Z,57.40
2019-04-21T20:04:38.499Z,57.30
2019-04-21T20:07:10.428Z,57.60
2019-04-21T20:09:47.890Z,58.90
2019-04-21T20:12:18.478Z,58.40
2019-04-21T20:14:57.611Z,59.20
2019-04-21T20:17:13.696Z,59.50
2019-04-21T20:19:32.156Z,59.80
2019-04-21T20:22:00.963Z,60.10
2019-04-21T20:24:33.989Z,59.30
2019-04-21T20:27:07.928Z,60.50
2019-04-21T20:29:49.896Z,60.90
2019-04-21T20:32:28.018Z,61.00
2019-04-21T20:34:56.210Z,61.50
2019-04-21T20:37:20.727Z,60.40
2019-04-21T20:39:44.001Z,59.70
2019-04-21T20:42:19.430Z,60.80
2019-04-21T20:44:57.405Z,60.50
2019-04-21T20:47:18.622Z,60.50
2019-04-21T20:49:45.017Z,59.60
2019-04-21T20:52:24.466Z,61.10
2019-04-21T20:54:48.189Z,62.10
2019-04-21T20:57:24.355Z,60.60
2019-04-21T20:59:53.036Z,62.40
2019-04-21T21:02:20.117Z,63.60
2019-04-21T21:04:45.785Z,62.40
2019-04-21T21:07:36.359Z,61.80
2019-04-21T21:10:01.660Z,63.30
2019-04-21T21:12:37.114Z,63.40
2019-04-21T21:14:52.963Z,65.10
2019-04-21T21:17:40.797Z,65.50
2019-04-21T21:20:00.787Z,64.90
2019-04-21T21:22:23.202Z,65.60
2019-04-21T21:24:57.066Z,65.90
2019-04-21T21:27:25.490Z,66.30
2019-04-21T21:29:56.149Z,64.60
2019-04-21T21:32:27.075Z,67.30
2019-04-21T21:34:56.938Z,67.70
2019-04-21T21:37:34.381Z,67.20
2019-04-21T21:40:06.079Z,67.50
2019-04-21T21:42:13.293Z,67.70
2019-04-21T21:44:49.541Z,68.80
2019-04-21T21:47:25.279Z,67.80
2019-04-21T21:49:57.814Z,67.70
2019-04-21T21:52:29.696Z,68.80
2019-04-21T21:54:43.587Z,69.10
2019-04-21T21:57:12.400Z,68.70
2019-04-21T21:59:42.188Z,67.80
2019-04-21T22:02:17.072Z,69.40
2019-04-21T22:04:52.889Z,70.60
2019-04-21T22:07:15.736Z,68.70
2019-04-21T22:09:42.012Z,68.50
2019-04-21T22:12:12.375Z,69.40
2019-04-21T22:14:45.512Z,70.20
2019-04-21T22:17:33.223Z,70.30
2019-04-21T22:20:03.586Z,70.80
2019-04-21T22:22:27.673Z,70.10
2019-04-21T22:24:54.468Z,70.20
2019-04-21T22:27:14.857Z,70.90
2019-04-21T22:29:48.199Z,72.30
2019-04-21T22:32:19.198Z,72.50
2019-04-21T22:34:52.387Z,73.30
2019-04-21T22:37:30.262Z,73.10
2019-04-21T22:39:58.464Z,71.80
2019-04-21T22:42:21.540Z,74.30
2019-04-21T22:44:46.200Z,74.20
2019-04-21T22:47:22.407Z,75.50
2019-04-21T22:49:48.685Z,75.80
2019-04-21T22:52:20.953Z,74.70
2019-04-21T22:54:49.312Z,75.30
2019-04-21T22:57:21.997Z,76.20
2019-04-21T22:59:54.877Z,77.20
2019-04-21T23:02:24.738Z,77.30
2019-04-21T23:04:54.254Z,77.80
2019-04-21T23:07:22.479Z,76.30
2019-04-21T23:09:49.894Z,77.10
2019-04-21T23:12:24.520Z,78.00
2019-04-21T23:14:57.416Z,76.80
2019-04-21T23:17:38.919Z,77.70
2019-04-21T23:20:10.500Z,77.40
2019-04-21T23:22:48.852Z,77.40
2019-04-21T23:25:07.503Z,77.30
2019-04-21T23:27:37.798Z,74.80
2019-04-21T23:30:20.173Z,76.60
2019-04-21T23:32:34.081Z,77.10
2019-04-21T23:34:55.638Z,76.80
2019-04-21T23:37:25.718Z,77.10
2019-04-21T23:40:03.017Z,79.10
2019-04-21T23:42:32.795Z,80.80
2019-04-21T23:44:58.061Z,81.10
2019-04-21T23:47:34.590Z,81.40
2019-04-21T23:50:02.547Z,81.30
2019-04-21T23:52:25.637Z,80.20
2019-04-21T23:54:55.543Z,78.40
2019-04-21T23:57:30.444Z,79.10
2019-04-21T23:59:57.398Z,78.80
